createdAt,value
2017-07-16T00:00:24.720Z,0
2017-07-16T00:01:26.063Z,0
2017-07-16T00:02:27.394Z,0
2017-07-16T00:03:28.743Z,0
2017-07-16T00:04:30.093Z,0
2017-07-16T00:05:31.423Z,0
2017-07-16T00:06:32.757Z,0
2017-07-16T00:07:34.100Z,0
2017-07-16T00:08:35.444Z,0
2017-07-16T00:09:36.779Z,0
2017-07-16T00:10:38.134Z,0
2017-07-16T00:11:39.468Z,0
2017-07-16T00:12:41.342Z,0
2017-07-16T00:13:42.676Z,0
2017-07-16T00:14:44.010Z,0
2017-07-16T00:15:45.345Z,0
2017-07-16T00:16:46.692Z,0
2017-07-16T00:17:48.036Z,0
2017-07-16T00:18:49.374Z,0
2017-07-16T00:19:50.716Z,0
2017-07-16T00:20:52.056Z,0
2017-07-16T00:21:53.387Z,0
2017-07-16T00:22:54.725Z,0
2017-07-16T00:23:56.074Z,0
2017-07-16T00:24:57.418Z,0
2017-07-16T00:25:58.765Z,0
2017-07-16T00:27:00.097Z,0
2017-07-16T00:28:01.431Z,0
2017-07-16T00:29:03.472Z,0
2017-07-16T00:30:04.814Z,0
2017-07-16T00:31:06.158Z,0
2017-07-16T00:32:07.506Z,0
2017-07-16T00:33:08.844Z,0
2017-07-16T00:34:10.203Z,0
2017-07-16T00:35:11.512Z,0
2017-07-16T00:36:13.729Z,0
2017-07-16T00:37:15.066Z,0
2017-07-16T00:38:16.399Z,0
2017-07-16T00:39:17.746Z,0
2017-07-16T00:40:19.082Z,0
2017-07-16T00:41:21.246Z,0
2017-07-16T00:42:22.578Z,0
2017-07-16T00:43:23.915Z,0
2017-07-16T00:44:25.251Z,0
2017-07-16T00:45:26.586Z,0
2017-07-16T00:46:27.922Z,0
2017-07-16T00:47:30.185Z,0
2017-07-16T00:48:31.514Z,0
2017-07-16T00:49:32.862Z,0
2017-07-16T00:50:34.192Z,0
2017-07-16T00:51:35.539Z,0
2017-07-16T00:52:36.879Z,0
2017-07-16T00:53:39.078Z,0
2017-07-16T00:54:40.429Z,0
2017-07-16T00:55:41.759Z,0
2017-07-16T00:56:43.094Z,0
2017-07-16T00:57:44.445Z,0
2017-07-16T00:58:45.778Z,0
2017-07-16T00:59:47.737Z,0
2017-07-16T01:00:49.072Z,0
2017-07-16T01:01:50.407Z,0
2017-07-16T01:02:51.743Z,0
2017-07-16T01:03:53.093Z,0
2017-07-16T01:04:54.433Z,0
2017-07-16T01:05:55.808Z,0
2017-07-16T01:06:57.149Z,0
2017-07-16T01:07:58.496Z,0
2017-07-16T01:08:59.841Z,0
2017-07-16T01:10:01.182Z,0
2017-07-16T01:11:02.521Z,0
2017-07-16T01:12:03.861Z,0
2017-07-16T01:13:05.203Z,0
2017-07-16T01:14:06.545Z,0
2017-07-16T01:15:08.291Z,0
2017-07-16T01:16:09.645Z,0
2017-07-16T01:17:10.985Z,0
2017-07-16T01:18:12.332Z,0
2017-07-16T01:19:13.667Z,0
2017-07-16T01:20:15.036Z,0
2017-07-16T01:21:16.369Z,0
2017-07-16T01:22:17.708Z,0
2017-07-16T01:23:19.044Z,0
2017-07-16T01:24:20.384Z,0
2017-07-16T01:25:21.726Z,0
2017-07-16T01:26:23.067Z,0
2017-07-16T01:27:24.412Z,0
2017-07-16T01:28:25.844Z,0
2017-07-16T01:29:27.179Z,0
2017-07-16T01:30:28.526Z,0
2017-07-16T01:31:29.866Z,0
2017-07-16T01:32:31.696Z,0
2017-07-16T01:33:33.048Z,0
2017-07-16T01:34:34.382Z,0
2017-07-16T01:35:35.727Z,0
2017-07-16T01:36:37.063Z,0
2017-07-16T01:37:38.398Z,0
2017-07-16T01:38:39.749Z,0
2017-07-16T01:39:41.085Z,0
2017-07-16T01:40:42.420Z,0
2017-07-16T01:41:43.756Z,0
2017-07-16T01:42:45.658Z,0
2017-07-16T01:43:47.006Z,0
2017-07-16T01:44:48.336Z,0
2017-07-16T01:45:49.676Z,0
2017-07-16T01:46:51.020Z,0
2017-07-16T01:47:52.351Z,0
2017-07-16T01:48:53.698Z,0
2017-07-16T01:49:55.045Z,0
2017-07-16T01:50:56.377Z,0
2017-07-16T01:51:57.727Z,0
2017-07-16T01:52:59.061Z,0
2017-07-16T01:54:00.396Z,0
2017-07-16T01:55:01.733Z,0
2017-07-16T01:56:03.067Z,0
2017-07-16T01:57:04.413Z,0
2017-07-16T01:58:06.527Z,0
2017-07-16T01:59:07.861Z,0
2017-07-16T02:00:09.197Z,0
2017-07-16T02:01:10.537Z,0
2017-07-16T02:02:11.868Z,0
2017-07-16T02:03:13.205Z,0
2017-07-16T02:04:14.541Z,0
2017-07-16T02:05:15.888Z,0
2017-07-16T02:06:18.033Z,0
2017-07-16T02:07:19.368Z,0
2017-07-16T02:08:20.721Z,0
2017-07-16T02:09:22.062Z,0
2017-07-16T02:10:23.409Z,0
2017-07-16T02:11:24.745Z,0
2017-07-16T02:12:26.092Z,0
2017-07-16T02:13:28.775Z,0
2017-07-16T02:14:30.111Z,0
2017-07-16T02:15:31.446Z,0
2017-07-16T02:16:32.795Z,0
2017-07-16T02:17:34.135Z,0
2017-07-16T02:18:36.175Z,0
2017-07-16T02:19:37.522Z,0
2017-07-16T02:20:38.854Z,0
2017-07-16T02:21:40.192Z,0
2017-07-16T02:22:41.534Z,0
2017-07-16T02:23:49.563Z,0
2017-07-16T02:24:51.555Z,0
2017-07-16T02:25:52.896Z,0
2017-07-16T02:26:54.237Z,0
2017-07-16T02:27:55.580Z,0
2017-07-16T02:28:56.916Z,0
2017-07-16T02:29:58.256Z,0
2017-07-16T02:30:59.595Z,0
2017-07-16T02:32:00.961Z,0
2017-07-16T02:33:02.278Z,0
2017-07-16T02:34:03.624Z,0
2017-07-16T02:35:04.966Z,0
2017-07-16T02:36:06.311Z,0
2017-07-16T02:37:07.648Z,0
2017-07-16T02:38:08.988Z,0
2017-07-16T02:39:10.329Z,0
2017-07-16T02:40:11.669Z,0
2017-07-16T02:41:13.011Z,0
2017-07-16T02:42:14.354Z,0
2017-07-16T02:43:15.693Z,0
2017-07-16T02:44:17.663Z,0
2017-07-16T02:45:19.005Z,0
2017-07-16T02:46:20.345Z,0
2017-07-16T02:47:21.684Z,0
2017-07-16T02:48:23.023Z,0
2017-07-16T02:49:24.372Z,0
2017-07-16T02:50:25.712Z,0
2017-07-16T02:51:27.053Z,0
2017-07-16T02:52:28.389Z,0
2017-07-16T02:53:29.738Z,0
2017-07-16T02:54:31.080Z,0
2017-07-16T02:55:32.420Z,0
2017-07-16T02:56:34.261Z,0
2017-07-16T02:57:35.592Z,0
2017-07-16T02:58:36.936Z,0
2017-07-16T02:59:38.846Z,0
2017-07-16T03:00:40.186Z,0
2017-07-16T03:01:41.529Z,0
2017-07-16T03:02:42.869Z,0
2017-07-16T03:03:44.207Z,0
2017-07-16T03:04:45.544Z,0
2017-07-16T03:05:46.885Z,0
2017-07-16T03:06:48.826Z,0
2017-07-16T03:07:50.164Z,0
2017-07-16T03:08:51.502Z,0
2017-07-16T03:09:52.850Z,0
2017-07-16T03:10:54.202Z,0
2017-07-16T03:11:55.528Z,0
2017-07-16T03:12:56.867Z,0
2017-07-16T03:13:58.208Z,0
2017-07-16T03:14:59.547Z,0
2017-07-16T03:16:00.886Z,0
2017-07-16T03:17:02.226Z,0
2017-07-16T03:18:03.567Z,0
2017-07-16T03:19:04.907Z,0
2017-07-16T03:20:06.248Z,0
2017-07-16T03:21:07.587Z,0
2017-07-16T03:22:08.930Z,0
2017-07-16T03:23:11.165Z,0
2017-07-16T03:24:12.505Z,0
2017-07-16T03:25:13.850Z,0
2017-07-16T03:26:15.187Z,0
2017-07-16T03:27:16.541Z,0
2017-07-16T03:28:17.875Z,0
2017-07-16T03:29:19.215Z,0
2017-07-16T03:30:20.558Z,0
2017-07-16T03:31:21.898Z,0
2017-07-16T03:32:23.240Z,0
2017-07-16T03:33:24.589Z,0
2017-07-16T03:34:25.931Z,0
2017-07-16T03:35:27.272Z,0
2017-07-16T03:36:28.613Z,0
2017-07-16T03:37:29.955Z,0
2017-07-16T03:38:31.301Z,0
2017-07-16T03:39:32.644Z,5
2017-07-16T03:40:33.985Z,5
2017-07-16T03:41:35.331Z,5
2017-07-16T03:42:37.317Z,5
2017-07-16T03:43:38.700Z,5
2017-07-16T03:44:40.005Z,5
2017-07-16T03:45:41.351Z,10
2017-07-16T03:46:42.695Z,10
2017-07-16T03:47:44.036Z,10
2017-07-16T03:48:45.402Z,10
2017-07-16T03:49:46.749Z,10
2017-07-16T03:50:48.092Z,10
2017-07-16T03:51:49.441Z,10
2017-07-16T03:52:50.787Z,10
2017-07-16T03:53:52.137Z,10
2017-07-16T03:54:53.482Z,10
2017-07-16T03:55:54.823Z,15
2017-07-16T03:56:56.165Z,15
2017-07-16T03:57:57.511Z,15
2017-07-16T03:58:58.851Z,15
2017-07-16T04:00:00.196Z,15
2017-07-16T04:01:01.563Z,15
2017-07-16T04:02:02.911Z,15
2017-07-16T04:03:04.254Z,15
2017-07-16T04:04:05.597Z,15
2017-07-16T04:05:06.938Z,15
2017-07-16T04:06:08.283Z,15
2017-07-16T04:07:09.625Z,15
2017-07-16T04:08:10.972Z,20
2017-07-16T04:09:12.315Z,20
2017-07-16T04:10:13.659Z,20
2017-07-16T04:11:15.008Z,20
2017-07-16T04:12:16.347Z,20
2017-07-16T04:13:17.698Z,20
2017-07-16T04:14:19.044Z,20
2017-07-16T04:15:20.391Z,20
2017-07-16T04:16:21.735Z,20
2017-07-16T04:17:23.076Z,20
2017-07-16T04:18:24.416Z,20
2017-07-16T04:19:26.483Z,20
2017-07-16T04:20:27.827Z,20
2017-07-16T04:21:29.173Z,20
2017-07-16T04:22:30.517Z,20
2017-07-16T04:23:32.817Z,20
2017-07-16T04:24:34.165Z,20
2017-07-16T04:25:35.508Z,20
2017-07-16T04:26:36.851Z,20
2017-07-16T04:27:38.195Z,20
2017-07-16T04:28:39.540Z,20
2017-07-16T04:29:40.883Z,25
2017-07-16T04:30:42.226Z,25
2017-07-16T04:31:43.570Z,25
2017-07-16T04:32:45.524Z,25
2017-07-16T04:33:46.871Z,30
2017-07-16T04:34:48.221Z,30
2017-07-16T04:35:49.563Z,30
2017-07-16T04:36:50.908Z,25
2017-07-16T04:37:52.251Z,25
2017-07-16T04:38:53.588Z,30
2017-07-16T04:39:54.935Z,30
2017-07-16T04:40:56.275Z,30
2017-07-16T04:41:57.618Z,30
2017-07-16T04:42:58.978Z,30
2017-07-16T04:44:00.325Z,30
2017-07-16T04:45:01.668Z,30
2017-07-16T04:46:03.012Z,30
2017-07-16T04:47:04.352Z,35
2017-07-16T04:48:05.694Z,35
2017-07-16T04:49:07.079Z,35
2017-07-16T04:50:08.383Z,35
2017-07-16T04:51:09.732Z,35
2017-07-16T04:52:11.906Z,40
2017-07-16T04:53:13.247Z,40
2017-07-16T04:54:14.590Z,40
2017-07-16T04:55:15.939Z,45
2017-07-16T04:56:17.286Z,45
2017-07-16T04:57:18.634Z,45
2017-07-16T04:58:19.977Z,45
2017-07-16T04:59:21.318Z,45
2017-07-16T05:00:22.658Z,45
2017-07-16T05:01:24.661Z,50
2017-07-16T05:02:26.008Z,50
2017-07-16T05:03:27.357Z,50
2017-07-16T05:04:28.700Z,50
2017-07-16T05:05:30.044Z,50
2017-07-16T05:06:31.384Z,50
2017-07-16T05:07:33.514Z,50
2017-07-16T05:08:34.871Z,50
2017-07-16T05:09:36.778Z,50
2017-07-16T05:10:38.121Z,50
2017-07-16T05:11:39.471Z,50
2017-07-16T05:12:40.820Z,50
2017-07-16T05:13:42.162Z,55
2017-07-16T05:14:43.505Z,55
2017-07-16T05:15:44.853Z,55
2017-07-16T05:16:46.187Z,60
2017-07-16T05:17:47.535Z,55
2017-07-16T05:18:48.880Z,55
2017-07-16T05:19:50.224Z,55
2017-07-16T05:20:51.565Z,55
2017-07-16T05:21:52.914Z,55
2017-07-16T05:22:54.260Z,55
2017-07-16T05:23:55.601Z,55
2017-07-16T05:24:56.950Z,55
2017-07-16T05:25:59.213Z,60
2017-07-16T05:27:00.557Z,60
2017-07-16T05:28:01.902Z,60
2017-07-16T05:29:03.244Z,65
2017-07-16T05:30:04.587Z,65
2017-07-16T05:31:05.939Z,65
2017-07-16T05:32:07.282Z,65
2017-07-16T05:33:08.629Z,70
2017-07-16T05:34:09.984Z,70
2017-07-16T05:35:11.327Z,75
2017-07-16T05:36:13.310Z,75
2017-07-16T05:37:14.662Z,80
2017-07-16T05:38:16.009Z,80
2017-07-16T05:39:17.360Z,75
2017-07-16T05:40:18.708Z,75
2017-07-16T05:41:20.056Z,70
2017-07-16T05:42:21.400Z,70
2017-07-16T05:43:22.742Z,70
2017-07-16T05:44:24.086Z,75
2017-07-16T05:45:25.429Z,75
2017-07-16T05:46:27.636Z,80
2017-07-16T05:47:28.074Z,80
2017-07-16T05:48:29.420Z,80
2017-07-16T05:49:30.766Z,85
2017-07-16T05:50:32.106Z,85
2017-07-16T05:51:34.196Z,90
2017-07-16T05:52:35.539Z,90
2017-07-16T05:53:36.887Z,90
2017-07-16T05:54:38.236Z,90
2017-07-16T05:55:39.582Z,90
2017-07-16T05:56:41.711Z,85
2017-07-16T05:57:43.050Z,85
2017-07-16T05:58:44.395Z,85
2017-07-16T05:59:45.740Z,85
2017-07-16T06:00:47.086Z,85
2017-07-16T06:01:48.435Z,85
2017-07-16T06:02:49.780Z,85
2017-07-16T06:03:51.126Z,85
2017-07-16T06:04:52.471Z,85
2017-07-16T06:05:54.467Z,85
2017-07-16T06:06:55.812Z,85
2017-07-16T06:07:57.165Z,85
2017-07-16T06:08:58.509Z,85
2017-07-16T06:09:59.890Z,85
2017-07-16T06:11:01.205Z,85
2017-07-16T06:12:02.549Z,85
2017-07-16T06:13:03.902Z,85
2017-07-16T06:14:05.250Z,80
2017-07-16T06:15:06.588Z,80
2017-07-16T06:16:07.937Z,80
2017-07-16T06:17:09.282Z,75
2017-07-16T06:18:10.624Z,75
2017-07-16T06:19:11.969Z,75
2017-07-16T06:20:13.314Z,75
2017-07-16T06:21:14.662Z,80
2017-07-16T06:22:16.006Z,80
2017-07-16T06:23:17.350Z,85
2017-07-16T06:24:18.699Z,90
2017-07-16T06:25:20.042Z,90
2017-07-16T06:26:21.388Z,90
2017-07-16T06:27:23.408Z,95
2017-07-16T06:28:24.755Z,95
2017-07-16T06:29:26.098Z,95
2017-07-16T06:30:27.445Z,95
2017-07-16T06:31:28.819Z,100
2017-07-16T06:32:30.172Z,100
2017-07-16T06:33:31.511Z,105
2017-07-16T06:34:32.864Z,105
2017-07-16T06:35:34.837Z,110
2017-07-16T06:36:36.182Z,115
2017-07-16T06:37:37.527Z,115
2017-07-16T06:38:38.878Z,115
2017-07-16T06:39:40.217Z,115
2017-07-16T06:40:41.562Z,115
2017-07-16T06:41:42.910Z,110
2017-07-16T06:42:44.270Z,110
2017-07-16T06:43:46.141Z,110
2017-07-16T06:44:46.925Z,110
2017-07-16T06:45:48.272Z,115
2017-07-16T06:46:49.617Z,125
2017-07-16T06:47:50.966Z,125
2017-07-16T06:48:52.311Z,125
2017-07-16T06:49:54.453Z,120
2017-07-16T06:50:55.801Z,120
2017-07-16T06:51:57.149Z,120
2017-07-16T06:52:58.500Z,120
2017-07-16T06:53:59.848Z,115
2017-07-16T06:55:01.187Z,110
2017-07-16T06:56:02.529Z,100
2017-07-16T06:57:03.876Z,95
2017-07-16T06:58:05.222Z,85
2017-07-16T06:59:06.571Z,80
2017-07-16T07:00:07.943Z,75
2017-07-16T07:01:09.263Z,75
2017-07-16T07:02:11.213Z,80
2017-07-16T07:03:12.558Z,85
2017-07-16T07:04:13.902Z,95
2017-07-16T07:05:15.247Z,105
2017-07-16T07:06:16.595Z,105
2017-07-16T07:07:18.798Z,115
2017-07-16T07:08:20.145Z,120
2017-07-16T07:09:21.491Z,125
2017-07-16T07:10:22.839Z,125
2017-07-16T07:11:24.195Z,125
2017-07-16T07:12:25.541Z,125
2017-07-16T07:13:27.504Z,125
2017-07-16T07:14:28.856Z,125
2017-07-16T07:15:30.200Z,125
2017-07-16T07:16:31.549Z,130
2017-07-16T07:17:32.892Z,135
2017-07-16T07:18:34.239Z,135
2017-07-16T07:19:35.584Z,135
2017-07-16T07:20:36.931Z,130
2017-07-16T07:21:38.278Z,125
2017-07-16T07:22:39.623Z,125
2017-07-16T07:23:40.972Z,125
2017-07-16T07:24:42.320Z,135
2017-07-16T07:25:43.671Z,140
2017-07-16T07:26:45.019Z,150
2017-07-16T07:27:46.370Z,165
2017-07-16T07:28:47.720Z,165
2017-07-16T07:29:49.640Z,170
2017-07-16T07:30:50.992Z,175
2017-07-16T07:31:52.342Z,175
2017-07-16T07:32:53.685Z,175
2017-07-16T07:33:55.590Z,170
2017-07-16T07:34:56.941Z,155
2017-07-16T07:35:58.292Z,150
2017-07-16T07:36:59.634Z,145
2017-07-16T07:38:00.979Z,145
2017-07-16T07:39:02.325Z,145
2017-07-16T07:40:04.397Z,145
2017-07-16T07:41:05.751Z,150
2017-07-16T07:42:08.016Z,150
2017-07-16T07:43:09.363Z,155
2017-07-16T07:44:10.720Z,160
2017-07-16T07:45:12.576Z,165
2017-07-16T07:46:13.921Z,165
2017-07-16T07:47:15.272Z,165
2017-07-16T07:48:16.619Z,165
2017-07-16T07:49:17.961Z,160
2017-07-16T07:50:19.318Z,155
2017-07-16T07:51:22.162Z,145
2017-07-16T07:52:22.520Z,140
2017-07-16T07:53:24.472Z,145
2017-07-16T07:54:25.822Z,140
2017-07-16T07:55:27.168Z,140
2017-07-16T07:56:28.516Z,125
2017-07-16T07:57:29.866Z,120
2017-07-16T07:58:32.154Z,125
2017-07-16T07:59:32.517Z,115
2017-07-16T08:00:33.866Z,115
2017-07-16T08:01:35.213Z,115
2017-07-16T08:02:36.558Z,115
2017-07-16T08:03:38.540Z,120
2017-07-16T08:04:39.889Z,145
2017-07-16T08:05:41.235Z,165
2017-07-16T08:06:42.580Z,145
2017-07-16T08:07:43.922Z,125
2017-07-16T08:08:45.271Z,120
2017-07-16T08:09:46.622Z,115
2017-07-16T08:10:47.967Z,105
2017-07-16T08:11:49.313Z,100
2017-07-16T08:12:50.660Z,95
2017-07-16T08:13:52.003Z,95
2017-07-16T08:14:53.347Z,90
2017-07-16T08:15:54.695Z,80
2017-07-16T08:16:56.045Z,85
2017-07-16T08:17:57.411Z,90
2017-07-16T08:18:59.658Z,95
2017-07-16T08:20:00.064Z,100
2017-07-16T08:21:01.408Z,105
2017-07-16T08:22:02.760Z,115
2017-07-16T08:23:04.101Z,100
2017-07-16T08:24:05.448Z,100
2017-07-16T08:25:06.794Z,130
2017-07-16T08:26:08.145Z,145
2017-07-16T08:27:15.486Z,140
2017-07-16T08:28:18.777Z,140
2017-07-16T08:29:21.431Z,155
2017-07-16T08:30:23.696Z,165
2017-07-16T08:31:25.088Z,180
2017-07-16T08:32:29.998Z,185
2017-07-16T08:33:32.303Z,180
2017-07-16T08:34:33.868Z,160
2017-07-16T08:35:38.572Z,150
2017-07-16T08:36:40.730Z,110
2017-07-16T08:37:42.422Z,130
2017-07-16T08:38:44.073Z,150
2017-07-16T08:39:46.659Z,150
2017-07-16T08:40:48.347Z,140
2017-07-16T08:41:50.171Z,120
2017-07-16T08:42:52.990Z,120
2017-07-16T08:43:55.126Z,105
2017-07-16T08:44:57.101Z,130
2017-07-16T08:46:00.838Z,165
2017-07-16T08:47:03.771Z,155
2017-07-16T08:48:07.539Z,155
2017-07-16T08:49:09.842Z,150
2017-07-16T08:50:11.999Z,150
2017-07-16T08:51:14.411Z,150
2017-07-16T08:52:17.024Z,155
2017-07-16T08:53:20.061Z,150
2017-07-16T08:54:23.008Z,140
2017-07-16T08:55:26.019Z,145
2017-07-16T08:56:28.941Z,150
2017-07-16T08:57:31.880Z,140
2017-07-16T08:58:34.253Z,135
2017-07-16T08:59:36.139Z,130
2017-07-16T09:00:38.649Z,125
2017-07-16T09:01:41.468Z,125
2017-07-16T09:02:43.521Z,140
2017-07-16T09:03:45.494Z,155
2017-07-16T09:04:47.316Z,150
2017-07-16T09:05:49.707Z,160
2017-07-16T09:06:53.255Z,155
2017-07-16T09:07:56.171Z,165
2017-07-16T09:08:58.383Z,165
2017-07-16T09:10:01.400Z,190
2017-07-16T09:11:03.824Z,170
2017-07-16T09:12:07.062Z,155
2017-07-16T09:13:08.888Z,160
2017-07-16T09:14:11.866Z,175
2017-07-16T09:15:15.588Z,215
2017-07-16T09:16:17.964Z,260
2017-07-16T09:17:20.404Z,255
2017-07-16T09:18:22.066Z,265
2017-07-16T09:19:24.103Z,270
2017-07-16T09:20:26.557Z,270
2017-07-16T09:21:29.529Z,265
2017-07-16T09:22:31.772Z,265
2017-07-16T09:23:34.925Z,260
2017-07-16T09:24:36.245Z,240
2017-07-16T09:25:38.050Z,210
2017-07-16T09:26:39.917Z,200
2017-07-16T09:27:41.673Z,195
2017-07-16T09:28:43.286Z,220
2017-07-16T09:29:46.357Z,240
2017-07-16T09:30:48.476Z,225
2017-07-16T09:31:51.035Z,190
2017-07-16T09:32:53.201Z,205
2017-07-16T09:33:55.974Z,185
2017-07-16T09:34:58.338Z,160
2017-07-16T09:36:00.746Z,165
2017-07-16T09:37:03.575Z,165
2017-07-16T09:38:05.955Z,170
2017-07-16T09:39:12.153Z,175
2017-07-16T09:40:14.366Z,175
2017-07-16T09:41:18.036Z,125
2017-07-16T09:42:20.271Z,120
2017-07-16T09:43:26.226Z,130
2017-07-16T09:44:27.998Z,140
2017-07-16T09:45:29.621Z,135
2017-07-16T09:46:33.674Z,170
2017-07-16T09:47:36.325Z,160
2017-07-16T09:48:39.153Z,165
2017-07-16T09:49:42.107Z,140
2017-07-16T09:50:45.802Z,170
2017-07-16T09:51:47.632Z,225
2017-07-16T09:52:49.685Z,255
2017-07-16T09:53:52.249Z,225
2017-07-16T09:54:55.472Z,205
2017-07-16T09:55:57.514Z,220
2017-07-16T09:56:59.854Z,285
2017-07-16T09:58:02.284Z,280
2017-07-16T09:59:04.673Z,295
2017-07-16T10:00:06.966Z,280
2017-07-16T10:01:10.913Z,240
2017-07-16T10:02:14.153Z,220
2017-07-16T10:03:16.461Z,220
2017-07-16T10:04:19.224Z,210
2017-07-16T10:05:21.220Z,210
2017-07-16T10:06:25.008Z,220
2017-07-16T10:07:27.986Z,255
2017-07-16T10:08:31.621Z,280
2017-07-16T10:09:34.309Z,285
2017-07-16T10:10:37.437Z,290
2017-07-16T10:11:39.913Z,285
2017-07-16T10:12:42.323Z,280
2017-07-16T10:13:44.625Z,295
2017-07-16T10:14:46.287Z,300
2017-07-16T10:15:49.014Z,285
2017-07-16T10:16:51.922Z,260
2017-07-16T10:17:53.497Z,215
2017-07-16T10:18:56.270Z,170
2017-07-16T10:19:58.237Z,160
2017-07-16T10:21:00.597Z,155
2017-07-16T10:22:02.782Z,130
2017-07-16T10:23:06.662Z,175
2017-07-16T10:24:08.934Z,155
2017-07-16T10:25:11.870Z,125
2017-07-16T10:26:15.038Z,105
2017-07-16T10:27:17.763Z,125
2017-07-16T10:28:20.068Z,135
2017-07-16T10:29:22.000Z,135
2017-07-16T10:30:24.126Z,125
2017-07-16T10:31:26.795Z,110
2017-07-16T10:32:29.480Z,115
2017-07-16T10:33:32.281Z,155
2017-07-16T10:34:33.574Z,120
2017-07-16T10:35:35.484Z,100
2017-07-16T10:36:37.930Z,100
2017-07-16T10:37:40.740Z,140
2017-07-16T10:38:43.397Z,215
2017-07-16T10:39:47.330Z,215
2017-07-16T10:40:49.371Z,200
2017-07-16T10:41:51.006Z,185
2017-07-16T10:42:53.265Z,205
2017-07-16T10:43:55.518Z,195
2017-07-16T10:44:57.973Z,200
2017-07-16T10:46:00.925Z,215
2017-07-16T10:47:05.080Z,230
2017-07-16T10:48:08.099Z,250
2017-07-16T10:49:10.462Z,270
2017-07-16T10:50:12.692Z,275
2017-07-16T10:51:15.718Z,260
2017-07-16T10:52:18.043Z,210
2017-07-16T10:53:20.574Z,195
2017-07-16T10:54:24.294Z,200
2017-07-16T10:55:27.129Z,270
2017-07-16T10:56:31.471Z,310
2017-07-16T10:57:38.535Z,290
2017-07-16T10:58:44.030Z,270
2017-07-16T10:59:46.092Z,225
2017-07-16T11:00:48.689Z,250
2017-07-16T11:01:51.363Z,270
2017-07-16T11:02:54.562Z,270
2017-07-16T11:03:57.624Z,255
2017-07-16T11:05:01.019Z,200
2017-07-16T11:06:03.963Z,215
2017-07-16T11:07:05.945Z,245
2017-07-16T11:08:08.641Z,240
2017-07-16T11:09:12.720Z,265
2017-07-16T11:10:14.685Z,305
2017-07-16T11:11:20.512Z,320
2017-07-16T11:12:22.366Z,255
2017-07-16T11:13:25.297Z,225
2017-07-16T11:14:27.077Z,240
2017-07-16T11:15:29.403Z,200
2017-07-16T11:16:31.445Z,225
2017-07-16T11:17:33.722Z,240
2017-07-16T11:18:36.335Z,240
2017-07-16T11:19:39.054Z,245
2017-07-16T11:20:41.342Z,225
2017-07-16T11:21:43.691Z,205
2017-07-16T11:22:45.655Z,215
2017-07-16T11:23:47.664Z,210
2017-07-16T11:24:50.091Z,220
2017-07-16T11:25:52.504Z,215
2017-07-16T11:26:54.693Z,215
2017-07-16T11:27:57.499Z,210
2017-07-16T11:29:00.397Z,190
2017-07-16T11:30:03.948Z,175
2017-07-16T11:31:07.695Z,185
2017-07-16T11:32:11.210Z,200
2017-07-16T11:33:14.156Z,205
2017-07-16T11:34:16.718Z,225
2017-07-16T11:35:19.300Z,210
2017-07-16T11:36:22.051Z,220
2017-07-16T11:37:25.315Z,235
2017-07-16T11:38:29.861Z,240
2017-07-16T11:39:34.604Z,240
2017-07-16T11:40:36.884Z,225
2017-07-16T11:41:38.500Z,220
2017-07-16T11:42:40.486Z,255
2017-07-16T11:43:42.940Z,275
2017-07-16T11:44:45.282Z,265
2017-07-16T11:45:47.637Z,240
2017-07-16T11:46:48.988Z,255
2017-07-16T11:47:51.690Z,265
2017-07-16T11:48:52.600Z,270
2017-07-16T11:49:54.197Z,265
2017-07-16T11:50:57.866Z,250
2017-07-16T11:52:02.210Z,240
2017-07-16T11:53:04.572Z,245
2017-07-16T11:54:06.744Z,235
2017-07-16T11:55:09.179Z,240
2017-07-16T11:56:11.505Z,250
2017-07-16T11:57:13.196Z,265
2017-07-16T11:58:14.608Z,290
2017-07-16T11:59:17.763Z,325
2017-07-16T12:00:23.842Z,345
2017-07-16T12:01:26.754Z,380
2017-07-16T12:02:32.697Z,430
2017-07-16T12:03:34.191Z,465
2017-07-16T12:04:36.815Z,635
2017-07-16T12:05:41.533Z,515
2017-07-16T12:06:44.873Z,580
2017-07-16T12:07:48.906Z,495
2017-07-16T12:08:52.196Z,470
2017-07-16T12:09:54.938Z,620
2017-07-16T12:10:57.284Z,450
2017-07-16T12:12:01.903Z,395
2017-07-16T12:13:03.605Z,390
2017-07-16T12:14:07.726Z,310
2017-07-16T12:15:09.970Z,245
2017-07-16T12:16:11.765Z,240
2017-07-16T12:17:13.753Z,270
2017-07-16T12:18:15.357Z,245
2017-07-16T12:19:17.444Z,265
2017-07-16T12:20:19.177Z,235
2017-07-16T12:21:21.658Z,215
2017-07-16T12:22:25.768Z,230
2017-07-16T12:23:28.457Z,280
2017-07-16T12:24:30.695Z,345
2017-07-16T12:25:32.674Z,445
2017-07-16T12:26:35.379Z,445
2017-07-16T12:27:37.415Z,615
2017-07-16T12:28:40.292Z,610
2017-07-16T12:29:42.748Z,765
2017-07-16T12:30:45.036Z,1375
2017-07-16T12:32:28.490Z,385
2017-07-16T12:33:31.994Z,540
2017-07-16T12:34:33.657Z,450
2017-07-16T12:35:36.116Z,445
2017-07-16T12:36:39.064Z,440
2017-07-16T12:37:41.328Z,265
2017-07-16T12:38:43.562Z,240
2017-07-16T12:39:45.550Z,200
2017-07-16T12:40:46.987Z,215
2017-07-16T12:41:49.186Z,285
2017-07-16T12:42:51.101Z,265
2017-07-16T12:43:52.610Z,200
2017-07-16T12:44:54.300Z,265
2017-07-16T12:45:58.453Z,260
2017-07-16T12:46:59.831Z,165
2017-07-16T12:48:01.581Z,205
2017-07-16T12:49:02.958Z,240
2017-07-16T12:50:04.309Z,420
2017-07-16T12:51:05.984Z,460
2017-07-16T12:52:07.339Z,380
2017-07-16T12:53:08.695Z,400
2017-07-16T12:54:10.058Z,435
2017-07-16T12:55:11.401Z,355
2017-07-16T12:56:12.749Z,310
2017-07-16T12:57:14.097Z,320
2017-07-16T12:58:15.481Z,180
2017-07-16T12:59:16.831Z,165
2017-07-16T13:00:19.225Z,165
2017-07-16T13:01:20.600Z,165
2017-07-16T13:02:21.951Z,190
2017-07-16T13:03:24.068Z,200
2017-07-16T13:04:25.418Z,205
2017-07-16T13:05:27.558Z,290
2017-07-16T13:06:28.898Z,280
2017-07-16T13:07:30.252Z,270
2017-07-16T13:08:31.601Z,300
2017-07-16T13:09:32.946Z,275
2017-07-16T13:10:34.299Z,210
2017-07-16T13:11:36.796Z,185
2017-07-16T13:12:38.142Z,250
2017-07-16T13:13:39.493Z,230
2017-07-16T13:14:40.842Z,205
2017-07-16T13:15:42.192Z,240
2017-07-16T13:16:43.582Z,230
2017-07-16T13:17:44.965Z,200
2017-07-16T13:18:46.314Z,215
2017-07-16T13:19:47.698Z,185
2017-07-16T13:20:49.056Z,175
2017-07-16T13:21:50.414Z,160
2017-07-16T13:22:52.503Z,150
2017-07-16T13:23:53.843Z,145
2017-07-16T13:24:55.437Z,155
2017-07-16T13:25:56.792Z,165
2017-07-16T13:26:58.140Z,155
2017-07-16T13:28:01.137Z,140
2017-07-16T13:29:02.513Z,120
2017-07-16T13:30:03.858Z,115
2017-07-16T13:31:05.204Z,135
2017-07-16T13:32:06.552Z,135
2017-07-16T13:33:07.911Z,105
2017-07-16T13:34:09.259Z,100
2017-07-16T13:35:10.612Z,115
2017-07-16T13:36:12.578Z,105
2017-07-16T13:37:13.927Z,105
2017-07-16T13:38:15.273Z,120
2017-07-16T13:39:16.622Z,105
2017-07-16T13:40:17.971Z,95
2017-07-16T13:41:19.328Z,90
2017-07-16T13:42:20.678Z,100
2017-07-16T13:43:22.031Z,105
2017-07-16T13:44:23.381Z,120
2017-07-16T13:45:24.731Z,145
2017-07-16T13:46:26.079Z,165
2017-07-16T13:47:27.426Z,215
2017-07-16T13:48:28.774Z,280
2017-07-16T13:49:30.122Z,260
2017-07-16T13:50:32.298Z,275
2017-07-16T13:51:33.653Z,385
2017-07-16T13:52:34.996Z,455
2017-07-16T13:53:36.347Z,585
2017-07-16T13:54:39.503Z,435
2017-07-16T13:55:41.675Z,215
2017-07-16T13:56:43.024Z,185
2017-07-16T13:57:44.374Z,150
2017-07-16T13:58:45.723Z,105
2017-07-16T13:59:47.072Z,95
2017-07-16T14:00:48.420Z,110
2017-07-16T14:01:49.767Z,135
2017-07-16T14:02:51.114Z,120
2017-07-16T14:03:52.465Z,105
2017-07-16T14:04:53.820Z,100
2017-07-16T14:05:55.276Z,95
2017-07-16T14:06:56.619Z,95
2017-07-16T14:07:57.974Z,85
2017-07-16T14:08:59.336Z,85
2017-07-16T14:10:00.706Z,85
2017-07-16T14:11:02.052Z,85
2017-07-16T14:12:03.401Z,85
2017-07-16T14:13:04.747Z,80
2017-07-16T14:14:06.093Z,75
2017-07-16T14:15:07.443Z,75
2017-07-16T14:16:08.796Z,70
2017-07-16T14:17:10.141Z,70
2017-07-16T14:18:11.489Z,65
2017-07-16T14:19:12.835Z,65
2017-07-16T14:20:14.482Z,75
2017-07-16T14:21:15.945Z,70
2017-07-16T14:22:17.802Z,70
2017-07-16T14:23:19.812Z,70
2017-07-16T14:24:21.861Z,65
2017-07-16T14:25:23.207Z,65
2017-07-16T14:26:26.288Z,65
2017-07-16T14:27:27.639Z,70
2017-07-16T14:28:28.991Z,75
2017-07-16T14:29:30.416Z,85
2017-07-16T14:30:35.647Z,85
2017-07-16T14:31:36.949Z,90
2017-07-16T14:32:41.048Z,85
2017-07-16T14:33:42.657Z,80
2017-07-16T14:34:44.007Z,80